Time;durP1;ratioP1;P1;durP2;ratioP2;P2;SDS_P1;SDS_P2;PMS_P1;PMS_P2;Temp;Humidity;BMP_temperature;BMP_pressure;BME280_temperature;BME280_humidity;BME280_pressure;Samples;Min_cycle;Max_cycle;Signal;HPM_P1;HPM_P2
2021/04/28 00:01:31;;;;;;;4.30;3.00;;;;;;;7.60;41.88;97777.69;3550941;40;20073;-62
2021/04/28 00:03:58;;;;;;;9.40;3.15;;;;;;;7.56;41.84;97775.66;3551152;40;20054;-62
2021/04/28 00:06:25;;;;;;;4.90;2.90;;;;;;;7.58;41.73;97774.44;3542359;40;20042;-61
2021/04/28 00:08:51;;;;;;;3.47;2.47;;;;;;;7.58;41.47;97778.91;3541491;40;20112;-61
2021/04/28 00:11:19;;;;;;;4.90;2.72;;;;;;;7.52;41.31;97767.38;3552707;40;20053;-62
2021/04/28 00:13:46;;;;;;;6.25;2.60;;;;;;;7.52;41.39;97761.28;3552671;40;20050;-62
2021/04/28 00:16:13;;;;;;;4.95;2.60;;;;;;;7.53;41.08;97758.47;3552752;40;20403;-62
2021/04/28 00:18:40;;;;;;;3.33;2.63;;;;;;;7.52;41.19;97762.09;3551593;40;20054;-62
2021/04/28 00:21:08;;;;;;;6.35;2.70;;;;;;;7.45;41.58;97758.63;3552145;40;20054;-63
2021/04/28 00:23:35;;;;;;;4.93;2.92;;;;;;;7.34;42.28;97762.63;3551642;40;20054;-62
2021/04/28 00:26:02;;;;;;;5.90;2.50;;;;;;;7.26;42.44;97762.00;3550766;40;20057;-62
2021/04/28 00:28:30;;;;;;;4.65;2.90;;;;;;;7.24;42.35;97751.69;3550677;40;20050;-62
2021/04/28 00:30:56;;;;;;;3.55;2.90;;;;;;;7.15;42.70;97747.63;3549201;40;20034;-62
2021/04/28 00:33:23;;;;;;;5.05;3.33;;;;;;;7.09;43.03;97753.66;3549084;40;20027;-62
2021/04/28 00:35:50;;;;;;;4.22;2.67;;;;;;;6.95;43.37;97742.28;3540195;40;20086;-62
2021/04/28 00:38:20;;;;;;;6.88;3.03;;;;;;;6.84;43.77;97748.06;3549121;40;20305;-62
2021/04/28 00:40:47;;;;;;;5.00;2.72;;;;;;;6.79;43.93;97747.84;3549042;40;20404;-62
2021/04/28 00:43:14;;;;;;;3.55;3.10;;;;;;;6.83;43.73;97743.84;3548851;40;20053;-62
2021/04/28 00:45:43;;;;;;;3.80;2.92;;;;;;;6.75;44.10;97741.38;3548862;40;20056;-62
2021/04/28 00:48:11;;;;;;;4.47;2.63;;;;;;;6.72;43.92;97739.94;3548913;40;20050;-62
2021/04/28 00:50:40;;;;;;;3.38;2.78;;;;;;;6.64;44.42;97740.09;3549171;40;20082;-62
2021/04/28 00:53:10;;;;;;;5.53;2.83;;;;;;;6.59;44.66;97731.97;3540185;40;20137;-62
2021/04/28 00:55:37;;;;;;;5.68;3.38;;;;;;;6.55;44.69;97736.81;3549114;40;20105;-61
2021/04/28 00:58:05;;;;;;;6.13;3.25;;;;;;;6.52;44.84;97737.19;3539812;40;20316;-62
2021/04/28 01:00:33;;;;;;;4.18;2.97;;;;;;;6.53;44.96;97735.38;3549161;40;20061;-62
2021/04/28 01:03:02;;;;;;;5.53;3.03;;;;;;;6.51;45.17;97730.31;3548743;40;20065;-62
2021/04/28 01:05:29;;;;;;;5.28;2.97;;;;;;;6.41;45.26;97727.25;3540019;40;20077;-61
2021/04/28 01:07:57;;;;;;;3.90;3.08;;;;;;;6.32;45.60;97737.03;3540724;40;20054;-61
2021/04/28 01:10:27;;;;;;;5.65;2.97;;;;;;;6.29;45.74;97734.81;3553257;40;20050;-62
2021/04/28 01:12:56;;;;;;;5.97;2.80;;;;;;;6.26;45.56;97729.94;3543110;40;20035;-63
2021/04/28 01:15:26;;;;;;;5.22;2.67;;;;;;;6.23;45.27;97724.28;3552389;40;20057;-62
2021/04/28 01:17:57;;;;;;;4.00;3.30;;;;;;;6.21;45.37;97727.09;3543211;40;20050;-62
2021/04/28 01:20:27;;;;;;;5.55;3.10;;;;;;;6.16;45.64;97721.59;3551250;40;20077;-61
2021/04/28 01:22:55;;;;;;;5.85;3.47;;;;;;;6.14;45.87;97729.66;3550618;40;20050;-62
2021/04/28 01:25:27;;;;;;;3.80;2.72;;;;;;;6.14;45.61;97726.22;3540528;40;20416;-62
2021/04/28 01:27:58;;;;;;;4.43;2.85;;;;;;;6.13;45.49;97729.88;3549119;40;20132;-62
2021/04/28 01:30:31;;;;;;;6.72;3.22;;;;;;;6.11;45.28;97726.59;3539978;40;20140;-64
2021/04/28 01:32:58;;;;;;;4.22;2.85;;;;;;;6.06;45.46;97726.38;3539786;40;20046;-62
2021/04/28 01:35:26;;;;;;;4.90;3.17;;;;;;;6.02;45.59;97730.38;3549097;40;20094;-62
2021/04/28 01:37:57;;;;;;;4.53;2.90;;;;;;;5.98;45.56;97723.88;3548858;40;20068;-62
2021/04/28 01:40:25;;;;;;;5.35;3.08;;;;;;;5.95;45.60;97718.00;3541655;40;20047;-62
2021/04/28 01:42:53;;;;;;;8.50;2.80;;;;;;;6.01;45.43;97724.31;3550483;40;20407;-62
2021/04/28 01:45:20;;;;;;;4.40;2.75;;;;;;;6.02;45.47;97722.50;3550778;40;20035;-62
2021/04/28 01:47:47;;;;;;;5.60;3.03;;;;;;;6.12;45.24;97722.97;3550737;40;20046;-62
2021/04/28 01:50:18;;;;;;;5.72;2.80;;;;;;;6.23;44.82;97730.31;3550756;40;20057;-64
2021/04/28 01:52:46;;;;;;;5.22;2.47;;;;;;;6.27;44.63;97718.44;3541104;40;20399;-62
2021/04/28 01:55:15;;;;;;;3.50;2.78;;;;;;;6.23;44.49;97721.66;3545732;40;20334;-62
2021/04/28 01:57:55;;;;;;;4.05;3.30;;;;;;;6.01;45.14;97721.69;3546041;40;20054;-62
2021/04/28 02:00:34;;;;;;;2.88;2.55;;;;;;;5.91;45.48;97719.34;3544396;40;20066;-62
2021/04/28 02:03:02;;;;;;;3.90;2.90;;;;;;;5.91;45.29;97713.28;3551127;40;20101;-62
2021/04/28 02:05:30;;;;;;;6.28;2.83;;;;;;;5.83;45.56;97716.03;3541098;40;20305;-62
2021/04/28 02:07:58;;;;;;;4.93;3.33;;;;;;;5.75;45.78;97717.00;3550274;40;20047;-62
2021/04/28 02:10:26;;;;;;;6.63;4.00;;;;;;;5.71;45.96;97720.97;3550368;40;20050;-62
2021/04/28 02:12:54;;;;;;;3.10;2.70;;;;;;;5.66;46.08;97711.06;3540621;40;20037;-64
2021/04/28 02:15:30;;;;;;;8.05;3.45;;;;;;;5.63;46.20;97708.00;3541343;40;20030;-62
2021/04/28 02:18:03;;;;;;;5.75;2.65;;;;;;;5.60;46.32;97703.97;3540842;40;20356;-62
2021/04/28 02:20:31;;;;;;;8.20;3.88;;;;;;;5.61;46.39;97710.81;3550234;40;20145;-62
2021/04/28 02:23:28;;;;;;;3.13;2.80;;;;;;;5.59;46.37;97710.22;3542325;40;20046;-62
2021/04/28 02:25:58;;;;;;;6.30;3.13;;;;;;;5.59;46.44;97704.97;3541875;40;20050;-63
2021/04/28 02:28:27;;;;;;;5.95;3.03;;;;;;;5.65;46.72;97700.78;3541940;40;20580;-62
2021/04/28 02:31:03;;;;;;;3.67;2.80;;;;;;;5.65;46.20;97700.78;3551360;40;20050;-62
2021/04/28 02:33:36;;;;;;;7.40;3.17;;;;;;;5.58;46.25;97697.28;3550498;40;20065;-62
2021/04/28 02:36:23;;;;;;;5.47;4.18;;;;;;;5.41;46.46;97694.91;3550702;40;20132;-61
2021/04/28 02:39:10;;;;;;;5.35;3.67;;;;;;;5.26;46.97;97694.13;3549132;40;20053;-61
2021/04/28 02:41:43;;;;;;;7.15;3.60;;;;;;;5.14;47.27;97691.22;3541097;40;20046;-62
2021/04/28 02:44:13;;;;;;;4.23;3.10;;;;;;;5.10;47.67;97696.97;3550368;40;20042;-62
2021/04/28 02:46:44;;;;;;;4.40;3.03;;;;;;;5.03;47.63;97694.31;3541014;40;20058;-62
2021/04/28 02:49:15;;;;;;;6.00;3.60;;;;;;;5.08;47.52;97689.31;3540575;40;20072;-62
2021/04/28 02:52:04;;;;;;;4.68;3.40;;;;;;;5.02;47.68;97695.31;3541194;40;20036;-61
2021/04/28 02:54:44;;;;;;;10.05;4.75;;;;;;;4.97;47.95;97687.16;3549814;40;20392;-62
2021/04/28 02:57:16;;;;;;;4.50;3.33;;;;;;;4.92;48.34;97685.09;3540326;40;20050;-61
2021/04/28 02:59:43;;;;;;;8.38;4.03;;;;;;;4.92;48.16;97687.72;3550229;40;20046;-61
2021/04/28 03:02:13;;;;;;;4.32;3.40;;;;;;;4.90;48.25;97692.34;3549803;40;20125;-62
2021/04/28 03:04:41;;;;;;;6.85;3.90;;;;;;;4.92;48.41;97689.53;3549059;40;20085;-61
2021/04/28 03:07:39;;;;;;;3.55;2.90;;;;;;;4.86;48.45;97683.22;3540303;40;20051;-61
2021/04/28 03:10:07;;;;;;;9.20;3.88;;;;;;;4.80;49.11;97681.34;3540630;40;20046;-62
2021/04/28 03:12:39;;;;;;;6.15;3.72;;;;;;;4.82;49.11;97681.97;3540372;40;20086;-62
2021/04/28 03:15:12;;;;;;;8.40;3.40;;;;;;;4.72;49.36;97678.81;3540561;40;20136;-62
2021/04/28 03:17:39;;;;;;;4.18;3.17;;;;;;;4.71;49.34;97677.19;3549624;40;20332;-62
2021/04/28 03:20:12;;;;;;;5.30;3.70;;;;;;;4.61;49.59;97677.50;3548666;40;20377;-62
2021/04/28 03:22:43;;;;;;;5.18;3.22;;;;;;;4.66;49.84;97679.56;3540419;40;20051;-62
2021/04/28 03:25:12;;;;;;;5.80;3.88;;;;;;;4.76;49.76;97680.06;3550590;40;20082;-62
2021/04/28 03:27:42;;;;;;;5.50;3.42;;;;;;;4.71;49.83;97688.47;3540906;40;20062;-62
2021/04/28 03:30:11;;;;;;;6.15;3.88;;;;;;;4.69;49.69;97674.78;3550402;40;20046;-63
2021/04/28 03:32:38;;;;;;;5.03;3.75;;;;;;;4.69;49.72;97684.41;3550054;40;20060;-62
2021/04/28 03:35:23;;;;;;;5.35;3.50;;;;;;;4.71;50.05;97682.44;3549957;40;20387;-62
2021/04/28 03:38:10;;;;;;;4.90;3.70;;;;;;;4.75;49.59;97680.25;3549350;40;20054;-62
2021/04/28 03:40:38;;;;;;;5.32;3.70;;;;;;;4.66;49.79;97690.03;3540282;40;20053;-62
2021/04/28 03:43:05;;;;;;;4.60;3.95;;;;;;;4.59;50.12;97682.09;3549812;40;20046;-63
2021/04/28 03:45:33;;;;;;;4.53;3.50;;;;;;;4.51;50.23;97689.22;3540264;40;20047;-62
2021/04/28 03:48:01;;;;;;;25.02;12.75;;;;;;;4.49;50.39;97692.03;3540094;40;20136;-63
2021/04/28 03:50:30;;;;;;;6.00;4.28;;;;;;;4.52;50.23;97688.22;3540526;40;20572;-63
2021/04/28 03:53:08;;;;;;;12.15;4.07;;;;;;;4.46;50.22;97700.22;3549886;40;20075;-62
2021/04/28 03:55:43;;;;;;;6.05;3.97;;;;;;;4.45;50.31;97694.19;3549659;40;20031;-62
2021/04/28 03:58:11;;;;;;;7.00;3.92;;;;;;;4.41;50.35;97698.16;3540043;40;20113;-62
2021/04/28 04:00:38;;;;;;;4.45;3.38;;;;;;;4.37;50.27;97699.50;3540176;40;20062;-63
2021/04/28 04:03:20;;;;;;;6.55;3.53;;;;;;;4.25;50.38;97700.94;3540289;40;20076;-63
2021/04/28 04:06:06;;;;;;;9.98;4.07;;;;;;;4.20;50.77;97698.03;3549680;40;20044;-63
2021/04/28 04:08:34;;;;;;;7.45;3.15;;;;;;;4.20;50.71;97698.88;3539997;40;20397;-63
2021/04/28 04:11:02;;;;;;;9.98;3.63;;;;;;;4.19;50.75;97699.84;3540203;40;20061;-63
2021/04/28 04:13:30;;;;;;;5.00;3.65;;;;;;;4.21;50.75;97702.28;3549515;40;20057;-62
2021/04/28 04:15:57;;;;;;;5.90;3.33;;;;;;;4.21;50.61;97705.72;3549344;40;20057;-62
2021/04/28 04:18:24;;;;;;;7.20;3.80;;;;;;;4.20;50.60;97711.13;3552216;40;20042;-62
2021/04/28 04:20:55;;;;;;;5.93;3.92;;;;;;;4.25;50.43;97714.03;3547638;40;20113;-62
2021/04/28 04:23:32;;;;;;;4.95;3.42;;;;;;;4.22;50.42;97707.34;3556054;40;20059;-62
2021/04/28 04:26:31;;;;;;;8.20;5.30;;;;;;;4.17;50.72;97706.25;3543028;40;20129;-62
2021/04/28 04:29:04;;;;;;;4.90;3.72;;;;;;;4.23;51.06;97703.72;3549336;40;20038;-62
2021/04/28 04:31:38;;;;;;;8.00;4.25;;;;;;;4.37;50.96;97711.78;3540231;40;20050;-62
2021/04/28 04:34:24;;;;;;;8.48;5.10;;;;;;;4.56;50.74;97711.22;3550182;40;20426;-62
2021/04/28 04:37:09;;;;;;;10.02;4.25;;;;;;;4.64;50.32;97703.28;3549048;40;20053;-62
2021/04/28 04:39:58;;;;;;;7.28;4.30;;;;;;;4.71;49.98;97713.84;3548318;40;20407;-64
2021/04/28 04:42:45;;;;;;;5.78;3.88;;;;;;;4.67;49.79;97704.72;3533443;40;20046;-63
2021/04/28 04:45:39;;;;;;;6.93;4.80;;;;;;;4.57;50.54;97717.28;3540625;40;20327;-63
2021/04/28 04:48:09;;;;;;;5.95;4.30;;;;;;;4.57;50.32;97709.41;3548605;40;20054;-63
2021/04/28 04:50:37;;;;;;;10.80;4.90;;;;;;;4.56;50.27;97711.22;3548990;40;20038;-63
2021/04/28 04:53:05;;;;;;;9.55;4.63;;;;;;;4.60;50.30;97706.44;3548953;40;20063;-63
2021/04/28 04:55:32;;;;;;;8.25;3.95;;;;;;;4.66;49.95;97710.97;3549217;40;20054;-63
2021/04/28 04:57:59;;;;;;;8.75;4.90;;;;;;;4.64;50.02;97711.13;3548706;40;20400;-62
2021/04/28 05:00:27;;;;;;;9.82;5.70;;;;;;;4.77;49.97;97715.72;3549112;40;20054;-63
2021/04/28 05:02:57;;;;;;;4.63;4.10;;;;;;;4.92;49.43;97711.28;3549306;40;20073;-62
2021/04/28 05:05:24;;;;;;;11.27;4.90;;;;;;;4.96;49.18;97709.94;3539716;40;20069;-63
2021/04/28 05:07:52;;;;;;;8.18;4.75;;;;;;;5.01;49.07;97717.22;3548796;40;20035;-63
2021/04/28 05:10:20;;;;;;;8.98;3.85;;;;;;;5.09;48.56;97716.31;3548710;40;20023;-62
2021/04/28 05:12:47;;;;;;;7.55;4.25;;;;;;;5.15;48.33;97718.22;3548927;40;20042;-62
2021/04/28 05:15:16;;;;;;;6.03;3.88;;;;;;;5.25;48.60;97720.53;3541264;40;20041;-62
2021/04/28 05:17:43;;;;;;;5.88;4.03;;;;;;;5.28;48.22;97715.72;3550008;40;20427;-63
2021/04/28 05:20:13;;;;;;;7.53;4.10;;;;;;;5.25;48.27;97723.16;3541127;40;20077;-63
2021/04/28 05:22:40;;;;;;;6.75;4.38;;;;;;;5.33;48.41;97721.22;3549922;40;20124;-62
2021/04/28 05:25:30;;;;;;;8.75;4.97;;;;;;;5.49;47.94;97724.63;3550108;40;20082;-62
2021/04/28 05:27:57;;;;;;;11.32;5.40;;;;;;;5.56;47.96;97721.06;3549656;40;20042;-62
2021/04/28 05:30:26;;;;;;;11.52;5.65;;;;;;;5.66;47.88;97716.31;3550397;40;20046;-63
2021/04/28 05:32:53;;;;;;;5.88;4.72;;;;;;;5.66;47.36;97716.31;3541158;40;20092;-63
2021/04/28 05:35:21;;;;;;;9.73;4.82;;;;;;;5.69;47.41;97725.63;3541494;40;20032;-63
2021/04/28 05:37:48;;;;;;;11.55;5.18;;;;;;;5.62;46.99;97716.88;3549774;40;20065;-63
2021/04/28 05:40:15;;;;;;;7.65;4.70;;;;;;;5.57;47.43;97719.25;3550133;40;20082;-62
2021/04/28 05:42:42;;;;;;;10.63;4.38;;;;;;;5.67;47.49;97719.75;3550153;40;20057;-63
2021/04/28 05:45:11;;;;;;;8.55;6.15;;;;;;;5.82;47.51;97714.44;3541026;40;20050;-63
2021/04/28 05:47:39;;;;;;;8.25;4.70;;;;;;;5.89;47.13;97710.88;3549639;40;20043;-65
2021/04/28 05:50:08;;;;;;;7.97;4.75;;;;;;;5.91;46.95;97713.28;3550354;40;20066;-63
2021/04/28 05:52:35;;;;;;;7.78;4.38;;;;;;;5.99;46.73;97715.81;3549842;40;20054;-62
2021/04/28 05:55:03;;;;;;;8.07;4.90;;;;;;;6.06;46.92;97719.31;3551154;40;20058;-62
2021/04/28 05:57:32;;;;;;;7.07;5.03;;;;;;;6.14;46.78;97718.34;3544142;40;20041;-62
2021/04/28 06:00:00;;;;;;;9.70;4.70;;;;;;;6.28;46.55;97720.06;3553822;40;20058;-62
2021/04/28 06:02:27;;;;;;;7.85;5.40;;;;;;;6.44;46.52;97716.31;3553504;40;20049;-62
2021/04/28 06:04:54;;;;;;;7.28;5.20;;;;;;;6.60;46.24;97713.41;3550728;40;20046;-62
2021/04/28 06:07:21;;;;;;;12.50;6.00;;;;;;;6.75;46.21;97713.28;3549903;40;20066;-62
2021/04/28 06:09:48;;;;;;;11.13;5.00;;;;;;;6.93;45.78;97708.31;3540715;40;20416;-63
2021/04/28 06:12:15;;;;;;;10.68;5.63;;;;;;;6.99;45.37;97708.53;3549889;40;20132;-62
2021/04/28 06:14:42;;;;;;;10.77;6.40;;;;;;;7.12;45.55;97708.59;3550044;40;20059;-62
2021/04/28 06:17:11;;;;;;;8.70;5.72;;;;;;;7.27;45.34;97717.13;3549881;40;20065;-62
2021/04/28 06:19:38;;;;;;;8.88;5.07;;;;;;;7.34;45.30;97702.16;3549857;40;20424;-62
2021/04/28 06:22:05;;;;;;;10.35;5.03;;;;;;;7.43;44.78;97705.44;3541067;40;20030;-62
2021/04/28 06:24:36;;;;;;;9.80;5.45;;;;;;;7.56;44.71;97705.47;3540813;40;20065;-62
2021/04/28 06:27:05;;;;;;;9.93;6.40;;;;;;;7.72;44.68;97704.28;3550051;40;20035;-63
2021/04/28 06:29:31;;;;;;;8.70;5.18;;;;;;;7.88;44.49;97705.72;3550368;40;20042;-63
2021/04/28 06:31:58;;;;;;;8.93;5.38;;;;;;;7.94;44.28;97700.44;3550352;40;20058;-62
2021/04/28 06:34:26;;;;;;;10.73;6.13;;;;;;;8.05;43.99;97699.03;3550719;40;20404;-62
2021/04/28 06:36:53;;;;;;;9.10;5.57;;;;;;;8.17;44.22;97704.50;3550951;40;20022;-62
2021/04/28 06:39:20;;;;;;;10.10;5.10;;;;;;;8.31;43.86;97706.06;3555450;40;20059;-63
2021/04/28 06:41:47;;;;;;;10.20;5.72;;;;;;;8.33;43.54;97700.63;3555765;40;20050;-61
2021/04/28 06:44:15;;;;;;;12.68;6.43;;;;;;;8.44;43.37;97702.63;3553859;40;20057;-62
2021/04/28 06:46:42;;;;;;;14.98;6.50;;;;;;;8.54;43.42;97699.59;3549925;40;20054;-61
2021/04/28 06:49:08;;;;;;;11.63;6.10;;;;;;;8.64;43.33;97698.13;3549581;40;20324;-61
2021/04/28 06:51:35;;;;;;;14.38;7.80;;;;;;;8.81;43.22;97695.84;3550035;40;20054;-62
2021/04/28 06:54:02;;;;;;;9.70;6.38;;;;;;;8.91;42.89;97692.78;3551182;40;20050;-62
2021/04/28 06:56:31;;;;;;;11.35;6.47;;;;;;;9.01;42.83;97694.97;3542758;40;20064;-61
2021/04/28 06:58:57;;;;;;;13.10;9.48;;;;;;;9.17;42.85;97695.31;3551896;40;20046;-62
2021/04/28 07:01:25;;;;;;;10.45;6.28;;;;;;;9.34;42.70;97689.53;3552186;40;20046;-62
2021/04/28 07:03:53;;;;;;;11.65;7.60;;;;;;;9.43;42.51;97691.72;3550283;40;20498;-62
2021/04/28 07:06:20;;;;;;;9.73;7.20;;;;;;;9.47;42.45;97688.66;3551319;40;20108;-62
2021/04/28 07:08:47;;;;;;;12.15;7.38;;;;;;;9.54;42.21;97684.13;3551413;40;20166;-62
2021/04/28 07:11:14;;;;;;;9.80;7.07;;;;;;;9.63;42.01;97681.06;3551883;40;20050;-62
2021/04/28 07:13:40;;;;;;;9.40;6.28;;;;;;;9.70;41.88;97683.63;3551671;40;20074;-62
2021/04/28 07:16:07;;;;;;;8.35;6.32;;;;;;;9.80;42.01;97685.81;3551691;40;20042;-62
2021/04/28 07:18:35;;;;;;;12.73;6.72;;;;;;;9.85;41.95;97691.25;3551369;40;20050;-62
2021/04/28 07:21:04;;;;;;;9.00;6.30;;;;;;;9.87;41.78;97681.25;3550724;40;20041;-62
2021/04/28 07:23:34;;;;;;;10.15;6.13;;;;;;;9.94;41.88;97682.03;3550995;40;20046;-62
2021/04/28 07:26:01;;;;;;;7.65;5.88;;;;;;;10.08;42.00;97680.91;3550797;40;20109;-63
2021/04/28 07:28:28;;;;;;;11.20;6.60;;;;;;;10.26;41.66;97682.78;3549479;40;20054;-62
2021/04/28 07:30:55;;;;;;;12.93;7.53;;;;;;;10.44;41.44;97676.72;3549897;40;20046;-62
2021/04/28 07:33:22;;;;;;;10.48;7.22;;;;;;;10.59;40.99;97677.19;3549754;40;20086;-62
2021/04/28 07:35:50;;;;;;;9.90;7.15;;;;;;;10.68;40.65;97668.94;3549311;40;20339;-62
2021/04/28 07:38:16;;;;;;;11.35;7.13;;;;;;;10.81;40.86;97661.66;3549105;40;20307;-62
2021/04/28 07:40:44;;;;;;;18.17;7.20;;;;;;;10.90;40.75;97662.19;3549626;40;20037;-62
2021/04/28 07:43:10;;;;;;;8.60;6.65;;;;;;;11.00;40.85;97666.94;3540436;40;20332;-62
2021/04/28 07:45:38;;;;;;;10.95;7.10;;;;;;;11.16;40.38;97663.69;3550019;40;20045;-62
2021/04/28 07:48:08;;;;;;;11.55;8.23;;;;;;;11.34;39.99;97660.97;3549051;40;20054;-62
2021/04/28 07:50:35;;;;;;;11.10;7.72;;;;;;;11.48;39.46;97660.81;3549829;40;20042;-62
2021/04/28 07:53:03;;;;;;;10.60;7.18;;;;;;;11.57;38.73;97662.09;3549927;40;20371;-62
2021/04/28 07:55:30;;;;;;;10.63;7.75;;;;;;;11.60;38.13;97659.00;3549815;40;20431;-62
2021/04/28 07:57:57;;;;;;;12.00;7.65;;;;;;;11.63;38.64;97658.53;3549010;40;20061;-62
2021/04/28 08:00:27;;;;;;;14.57;7.70;;;;;;;11.66;38.63;97664.19;3548196;40;20423;-63
2021/04/28 08:02:54;;;;;;;11.15;8.27;;;;;;;11.79;38.67;97665.81;3549334;40;20069;-62
2021/04/28 08:05:21;;;;;;;11.27;7.47;;;;;;;11.94;38.33;97661.97;3549292;40;20046;-62
2021/04/28 08:07:49;;;;;;;10.18;7.60;;;;;;;12.06;38.26;97658.28;3604412;23;20034;-66
2021/04/28 08:10:17;;;;;;;11.07;7.65;;;;;;;12.26;37.88;97662.44;3548978;40;20050;-66
2021/04/28 08:12:44;;;;;;;16.75;8.88;;;;;;;12.39;37.21;97659.53;3549080;40;20050;-64
2021/04/28 08:15:12;;;;;;;14.30;8.98;;;;;;;12.48;37.13;97660.78;3549286;40;20054;-65
2021/04/28 08:17:40;;;;;;;15.43;9.60;;;;;;;12.63;36.36;97660.31;3548780;40;20399;-66
2021/04/28 08:20:10;;;;;;;21.75;17.48;;;;;;;12.73;36.50;97660.53;3549077;40;20046;-67
2021/04/28 08:22:37;;;;;;;14.38;9.70;;;;;;;12.82;35.39;97658.34;3539904;40;20050;-66
2021/04/28 08:25:06;;;;;;;13.20;9.50;;;;;;;12.85;34.79;97655.19;3549154;40;20429;-66
2021/04/28 08:27:33;;;;;;;16.08;10.73;;;;;;;12.92;34.94;97657.72;3548684;40;20315;-66
2021/04/28 08:30:01;;;;;;;12.07;8.55;;;;;;;12.92;34.86;97661.19;3548901;40;20082;-65
2021/04/28 08:32:28;;;;;;;12.40;9.00;;;;;;;12.94;34.91;97651.16;3549102;40;20046;-66
2021/04/28 08:34:55;;;;;;;14.73;9.07;;;;;;;13.09;34.18;97651.41;3548761;40;20054;-66
2021/04/28 08:37:22;;;;;;;14.00;8.20;;;;;;;13.17;34.66;97652.91;3539778;40;20038;-68
2021/04/28 08:39:48;;;;;;;10.88;7.93;;;;;;;13.19;34.84;97661.44;3548744;40;20057;-66
2021/04/28 08:42:16;;;;;;;11.55;8.00;;;;;;;13.31;34.68;97653.47;3549025;40;20399;-67
2021/04/28 08:44:44;;;;;;;10.65;7.95;;;;;;;13.38;34.64;97652.25;3539422;40;20073;-66
2021/04/28 08:47:13;;;;;;;12.82;8.75;;;;;;;13.44;34.50;97653.16;3549930;40;20337;-66
2021/04/28 08:49:40;;;;;;;10.18;8.07;;;;;;;13.49;34.15;97652.44;3551458;40;20057;-65
2021/04/28 08:52:07;;;;;;;9.85;7.80;;;;;;;13.55;34.12;97654.13;3549721;40;20050;-65
2021/04/28 08:54:46;;;;;;;13.30;8.13;;;;;;;13.68;34.01;97648.53;3550778;40;20415;-65
2021/04/28 08:57:14;;;;;;;11.32;7.93;;;;;;;13.78;33.74;97645.22;3550396;40;20400;-65
2021/04/28 08:59:41;;;;;;;13.18;9.32;;;;;;;13.89;33.21;97641.69;3550201;40;20050;-65
2021/04/28 09:02:17;;;;;;;15.52;10.35;;;;;;;14.06;33.39;97647.00;3549238;40;20133;-66
2021/04/28 09:05:04;;;;;;;16.02;9.38;;;;;;;14.14;32.50;97635.94;3549045;40;20042;-65
2021/04/28 09:07:31;;;;;;;13.75;10.60;;;;;;;14.33;32.15;97639.16;3548364;40;20407;-65
2021/04/28 09:10:04;;;;;;;14.20;10.90;;;;;;;14.48;31.96;97644.66;3548645;40;20048;-65
2021/04/28 09:12:31;;;;;;;11.73;9.10;;;;;;;14.50;32.03;97633.81;3548740;40;20058;-65
2021/04/28 09:14:58;;;;;;;14.27;9.70;;;;;;;14.66;31.86;97637.50;3548882;40;20050;-66
2021/04/28 09:17:26;;;;;;;13.63;10.10;;;;;;;14.76;31.74;97630.41;3548422;40;20137;-65
2021/04/28 09:20:16;;;;;;;13.93;9.75;;;;;;;14.84;31.43;97632.66;3548744;40;20549;-66
2021/04/28 09:23:02;;;;;;;14.55;9.40;;;;;;;14.88;31.20;97632.97;3548724;40;20331;-66
2021/04/28 09:25:50;;;;;;;12.50;9.75;;;;;;;14.98;31.44;97632.25;3548798;40;20331;-66
2021/04/28 09:28:37;;;;;;;15.43;10.65;;;;;;;15.20;31.43;97626.91;3548662;40;20136;-66
2021/04/28 09:31:17;;;;;;;16.40;11.18;;;;;;;15.53;30.68;97628.56;3548665;40;20498;-66
2021/04/28 09:33:49;;;;;;;15.30;11.18;;;;;;;15.60;29.72;97631.84;3549061;40;20298;-66
2021/04/28 09:36:24;;;;;;;15.52;10.52;;;;;;;15.53;29.83;97628.56;3549197;40;20062;-66
2021/04/28 09:38:52;;;;;;;12.93;10.15;;;;;;;15.49;30.33;97622.94;3548382;40;20054;-66
2021/04/28 09:41:37;;;;;;;12.10;10.35;;;;;;;15.63;30.43;97622.50;3548606;40;20061;-66
2021/04/28 09:44:22;;;;;;;14.38;9.57;;;;;;;15.82;29.69;97619.25;3549017;40;20057;-66
2021/04/28 09:46:54;;;;;;;12.45;9.57;;;;;;;15.99;29.92;97621.75;3550817;40;20054;-67
2021/04/28 09:49:24;;;;;;;13.23;9.73;;;;;;;16.08;29.71;97620.25;3553425;40;20054;-67
2021/04/28 09:51:56;;;;;;;15.30;10.20;;;;;;;16.16;29.43;97612.81;3552954;40;20079;-66
2021/04/28 09:54:29;;;;;;;18.88;11.50;;;;;;;16.18;28.23;97614.16;3552744;40;20099;-67
2021/04/28 09:56:56;;;;;;;16.02;11.48;;;;;;;16.20;28.46;97612.03;3543143;40;20086;-67
2021/04/28 09:59:39;;;;;;;14.60;10.32;;;;;;;16.25;28.63;97606.75;3551987;40;20133;-66
2021/04/28 10:02:06;;;;;;;12.80;10.05;;;;;;;16.26;28.70;97611.00;3553603;40;20054;-65
2021/04/28 10:04:34;;;;;;;12.70;10.38;;;;;;;16.31;28.39;97602.22;3544728;40;20054;-65
2021/04/28 10:07:02;;;;;;;11.68;9.75;;;;;;;16.41;28.08;97599.63;3553242;40;20057;-67
2021/04/28 10:09:33;;;;;;;14.05;10.90;;;;;;;16.53;27.67;97599.41;3553558;40;20061;-68
2021/04/28 10:12:03;;;;;;;16.08;10.75;;;;;;;16.55;27.05;97597.28;3553997;40;20443;-67
2021/04/28 10:14:30;;;;;;;14.75;10.38;;;;;;;16.62;27.50;97587.19;3554860;40;20046;-68
2021/04/28 10:16:59;;;;;;;14.88;9.80;;;;;;;16.78;27.78;97588.06;3554455;40;20050;-68
2021/04/28 10:19:27;;;;;;;13.45;9.70;;;;;;;16.92;27.40;97583.03;3553875;40;20054;-66
2021/04/28 10:21:58;;;;;;;16.52;10.18;;;;;;;17.12;26.90;97576.94;3550970;40;20077;-66
2021/04/28 10:24:26;;;;;;;15.45;10.05;;;;;;;17.23;26.32;97576.69;3551532;40;20144;-66
2021/04/28 10:26:53;;;;;;;13.38;10.27;;;;;;;17.33;25.65;97567.88;3552680;40;20042;-67
2021/04/28 10:29:21;;;;;;;11.57;9.27;;;;;;;17.39;25.69;97571.34;3553126;40;20050;-66
2021/04/28 10:31:49;;;;;;;10.23;7.75;;;;;;;17.31;26.43;97564.69;3553442;40;20054;-68
2021/04/28 10:34:28;;;;;;;14.27;8.00;;;;;;;17.50;25.76;97565.75;3554335;40;20123;-68
2021/04/28 10:36:57;;;;;;;11.43;8.63;;;;;;;17.52;25.55;97562.84;3555050;40;20286;-68
2021/04/28 10:39:27;;;;;;;10.80;8.10;;;;;;;17.63;25.88;97556.38;3554794;40;20059;-67
2021/04/28 10:41:56;;;;;;;12.95;7.53;;;;;;;17.74;24.77;97554.53;3551944;40;20046;-68
2021/04/28 10:44:50;;;;;;;9.70;7.25;;;;;;;17.90;24.75;97550.00;3551421;40;20116;-67
2021/04/28 10:47:22;;;;;;;12.35;8.52;;;;;;;17.96;24.59;97554.25;3519195;40;20054;-67
2021/04/28 10:50:08;;;;;;;12.48;6.88;;;;;;;18.00;23.78;97552.63;3551027;40;20053;-67
2021/04/28 10:52:41;;;;;;;9.63;6.57;;;;;;;18.05;23.18;97541.94;3543589;40;20080;-66
2021/04/28 10:55:49;;;;;;;14.98;7.50;;;;;;;18.18;23.21;97533.34;3549890;40;20136;-66
2021/04/28 10:58:44;;;;;;;7.45;6.45;;;;;;;18.44;23.30;97531.38;3549556;40;20065;-66
2021/04/28 11:01:20;;;;;;;8.25;6.75;;;;;;;18.49;23.03;97528.69;3549993;40;20054;-67
2021/04/28 11:03:49;;;;;;;10.25;5.90;;;;;;;18.53;22.94;97534.28;3549560;40;20074;-66
2021/04/28 11:06:38;;;;;;;8.95;5.93;;;;;;;18.65;22.87;97531.28;3549987;40;20384;-67
2021/04/28 11:09:11;;;;;;;9.00;6.75;;;;;;;18.71;22.39;97530.22;3549699;40;20046;-66
2021/04/28 11:11:44;;;;;;;;;;;;;;;18.76;22.98;97522.16;3550180;40;20040;-67
2021/04/28 11:14:31;;;;;;;9.18;6.88;;;;;;;18.82;23.49;97518.38;3549504;40;20382;-66
2021/04/28 11:17:24;;;;;;;10.35;7.25;;;;;;;18.96;23.39;97510.53;3548935;40;20416;-65
2021/04/28 11:19:52;;;;;;;12.98;7.70;;;;;;;19.08;22.98;97515.53;3550027;40;20057;-65
2021/04/28 11:22:22;;;;;;;8.23;7.43;;;;;;;19.11;23.11;97510.41;3551874;40;20060;-66
2021/04/28 11:24:58;;;;;;;9.98;6.88;;;;;;;19.20;23.22;97510.63;3551979;40;20046;-66
2021/04/28 11:27:57;;;;;;;9.35;7.55;;;;;;;19.35;22.90;97515.88;3551979;40;20051;-66
2021/04/28 11:30:29;;;;;;;11.13;8.65;;;;;;;19.48;22.16;97495.66;3551950;40;20446;-67
2021/04/28 11:33:30;;;;;;;11.23;8.13;;;;;;;19.34;22.02;97495.50;3552118;40;20054;-66
2021/04/28 11:36:12;;;;;;;8.95;7.00;;;;;;;19.39;22.52;97500.81;3544704;40;20135;-67
2021/04/28 11:38:43;;;;;;;8.35;7.03;;;;;;;19.55;22.53;97494.25;3551600;40;20062;-66
2021/04/28 11:41:15;;;;;;;9.13;6.82;;;;;;;19.82;21.87;97502.88;3550763;40;20293;-66
2021/04/28 11:43:45;;;;;;;7.93;6.95;;;;;;;19.87;21.94;97486.72;3550165;40;20046;-65
2021/04/28 11:46:14;;;;;;;8.27;6.38;;;;;;;19.92;22.15;97490.16;3541151;40;20049;-66
2021/04/28 11:48:43;;;;;;;8.93;6.55;;;;;;;19.92;21.86;97484.78;3549714;40;20069;-65
2021/04/28 11:51:12;;;;;;;8.45;6.55;;;;;;;20.02;21.88;97486.56;3540485;40;20387;-65
2021/04/28 11:53:45;;;;;;;7.05;5.97;;;;;;;20.23;21.89;97484.44;3549425;40;20049;-65